sensor_id;sensor_type;location;lat;lon;timestamp;pressure;altitude;pressure_sealevel;temperature;humidity
46392;BME280;32098;49.448;7.904;2023-03-13T00:01:38;97562.25;;;8.26;67.95
46392;BME280;32098;49.448;7.904;2023-03-13T00:04:05;97559.47;;;8.21;68.63
46392;BME280;32098;49.448;7.904;2023-03-13T00:06:34;97538.75;;;8.23;68.80
46392;BME280;32098;49.448;7.904;2023-03-13T00:09:03;97542.59;;;8.27;68.73
46392;BME280;32098;49.448;7.904;2023-03-13T00:11:30;97533.69;;;8.21;69.32
46392;BME280;32098;49.448;7.904;2023-03-13T00:13:59;97526.28;;;8.23;69.42
46392;BME280;32098;49.448;7.904;2023-03-13T00:16:26;97524.09;;;8.32;68.97
46392;BME280;32098;49.448;7.904;2023-03-13T00:18:54;97519.91;;;8.36;69.19
46392;BME280;32098;49.448;7.904;2023-03-13T00:21:23;97516.22;;;8.37;69.14
46392;BME280;32098;49.448;7.904;2023-03-13T00:23:50;97508.34;;;8.42;68.98
46392;BME280;32098;49.448;7.904;2023-03-13T00:26:19;97503.13;;;8.35;69.63
46392;BME280;32098;49.448;7.904;2023-03-13T00:28:46;97503.94;;;8.36;69.72
46392;BME280;32098;49.448;7.904;2023-03-13T00:31:16;97504.06;;;8.41;69.81
46392;BME280;32098;49.448;7.904;2023-03-13T00:33:45;97482.78;;;8.41;69.59
46392;BME280;32098;49.448;7.904;2023-03-13T00:36:21;97492.25;;;8.48;69.66
46392;BME280;32098;49.448;7.904;2023-03-13T00:38:48;97482.63;;;8.47;69.68
46392;BME280;32098;49.448;7.904;2023-03-13T00:41:17;97486.13;;;8.48;70.37
46392;BME280;32098;49.448;7.904;2023-03-13T00:43:45;97477.09;;;8.49;70.40
46392;BME280;32098;49.448;7.904;2023-03-13T00:46:13;97478.47;;;8.40;70.70
46392;BME280;32098;49.448;7.904;2023-03-13T00:48:41;97481.34;;;8.50;70.43
46392;BME280;32098;49.448;7.904;2023-03-13T00:51:07;97472.25;;;8.46;70.60
46392;BME280;32098;49.448;7.904;2023-03-13T00:53:34;97476.84;;;8.50;70.36
46392;BME280;32098;49.448;7.904;2023-03-13T00:56:07;97471.53;;;8.50;70.73
46392;BME280;32098;49.448;7.904;2023-03-13T00:58:35;97471.53;;;8.62;70.20
46392;BME280;32098;49.448;7.904;2023-03-13T01:01:11;97461.44;;;8.64;70.11
46392;BME280;32098;49.448;7.904;2023-03-13T01:03:40;97455.91;;;8.54;70.51
46392;BME280;32098;49.448;7.904;2023-03-13T01:06:11;97452.78;;;8.57;70.52
46392;BME280;32098;49.448;7.904;2023-03-13T01:08:38;97444.91;;;8.62;70.13
46392;BME280;32098;49.448;7.904;2023-03-13T01:11:10;97442.81;;;8.64;70.54
46392;BME280;32098;49.448;7.904;2023-03-13T01:13:38;97437.38;;;8.71;70.28
46392;BME280;32098;49.448;7.904;2023-03-13T01:16:16;97430.66;;;8.68;70.37
46392;BME280;32098;49.448;7.904;2023-03-13T01:18:46;97412.25;;;8.67;70.38
46392;BME280;32098;49.448;7.904;2023-03-13T01:21:14;97420.97;;;8.62;70.90
46392;BME280;32098;49.448;7.904;2023-03-13T01:23:41;97417.00;;;8.65;71.05
46392;BME280;32098;49.448;7.904;2023-03-13T01:26:08;97412.03;;;8.68;70.93
46392;BME280;32098;49.448;7.904;2023-03-13T01:28:35;97404.50;;;8.65;71.27
46392;BME280;32098;49.448;7.904;2023-03-13T01:31:15;97402.66;;;8.77;70.88
46392;BME280;32098;49.448;7.904;2023-03-13T01:33:45;97408.06;;;8.82;70.80
46392;BME280;32098;49.448;7.904;2023-03-13T01:36:14;97393.38;;;8.80;71.14
46392;BME280;32098;49.448;7.904;2023-03-13T01:38:41;97385.16;;;8.81;71.24
46392;BME280;32098;49.448;7.904;2023-03-13T01:41:11;97380.75;;;8.75;71.66
46392;BME280;32098;49.448;7.904;2023-03-13T01:43:38;97381.91;;;8.79;71.72
46392;BME280;32098;49.448;7.904;2023-03-13T01:49:06;97368.34;;;8.81;72.82
46392;BME280;32098;49.448;7.904;2023-03-13T01:52:05;97363.66;;;8.71;74.44
46392;BME280;32098;49.448;7.904;2023-03-13T01:54:53;97353.81;;;8.72;75.43
46392;BME280;32098;49.448;7.904;2023-03-13T01:57:23;97352.31;;;8.64;76.61
46392;BME280;32098;49.448;7.904;2023-03-13T01:59:56;97340.69;;;8.53;77.66
46392;BME280;32098;49.448;7.904;2023-03-13T02:02:25;97347.94;;;8.58;78.75
46392;BME280;32098;49.448;7.904;2023-03-13T02:04:55;97344.16;;;8.54;79.63
46392;BME280;32098;49.448;7.904;2023-03-13T02:07:27;97339.06;;;8.52;80.34
46392;BME280;32098;49.448;7.904;2023-03-13T02:09:56;97312.88;;;8.33;81.79
46392;BME280;32098;49.448;7.904;2023-03-13T02:12:31;97330.09;;;8.42;82.84
46392;BME280;32098;49.448;7.904;2023-03-13T02:15:03;97335.31;;;8.37;83.50
46392;BME280;32098;49.448;7.904;2023-03-13T02:17:33;97326.16;;;8.44;84.27
46392;BME280;32098;49.448;7.904;2023-03-13T02:20:01;97312.66;;;8.34;85.33
46392;BME280;32098;49.448;7.904;2023-03-13T02:30:21;97300.81;;;8.14;89.31
46392;BME280;32098;49.448;7.904;2023-03-13T02:32:47;97301.28;;;8.11;89.88
46392;BME280;32098;49.448;7.904;2023-03-13T02:35:17;97304.50;;;8.13;90.66
46392;BME280;32098;49.448;7.904;2023-03-13T02:37:48;97288.09;;;8.16;91.31
46392;BME280;32098;49.448;7.904;2023-03-13T02:40:24;97286.47;;;8.15;92.14
46392;BME280;32098;49.448;7.904;2023-03-13T02:42:52;97286.69;;;8.13;93.06
46392;BME280;32098;49.448;7.904;2023-03-13T02:45:20;97272.03;;;8.11;93.76
46392;BME280;32098;49.448;7.904;2023-03-13T02:47:47;97278.16;;;8.11;94.46
46392;BME280;32098;49.448;7.904;2023-03-13T02:50:14;97266.16;;;8.09;94.63
46392;BME280;32098;49.448;7.904;2023-03-13T02:52:50;97261.19;;;8.01;95.59
46392;BME280;32098;49.448;7.904;2023-03-13T02:55:29;97260.72;;;8.04;96.68
46392;BME280;32098;49.448;7.904;2023-03-13T02:57:56;97240.19;;;7.87;97.84
46392;BME280;32098;49.448;7.904;2023-03-13T03:00:23;97246.31;;;7.88;98.76
46392;BME280;32098;49.448;7.904;2023-03-13T03:02:53;97250.56;;;8.01;98.06
46392;BME280;32098;49.448;7.904;2023-03-13T03:05:21;97246.22;;;7.94;98.57
46392;BME280;32098;49.448;7.904;2023-03-13T03:07:49;97241.47;;;7.97;99.14
46392;BME280;32098;49.448;7.904;2023-03-13T03:10:17;97237.84;;;8.03;98.90
46392;BME280;32098;49.448;7.904;2023-03-13T03:12:44;97235.28;;;8.08;98.74
46392;BME280;32098;49.448;7.904;2023-03-13T03:15:12;97235.56;;;7.94;99.30
46392;BME280;32098;49.448;7.904;2023-03-13T03:17:44;97231.38;;;7.99;98.93
46392;BME280;32098;49.448;7.904;2023-03-13T03:20:11;97230.91;;;8.02;99.07
46392;BME280;32098;49.448;7.904;2023-03-13T03:22:40;97230.25;;;7.94;99.74
46392;BME280;32098;49.448;7.904;2023-03-13T03:25:07;97229.06;;;8.02;99.43
46392;BME280;32098;49.448;7.904;2023-03-13T03:27:35;97214.06;;;7.96;99.75
46392;BME280;32098;49.448;7.904;2023-03-13T03:30:05;97228.47;;;8.00;99.39
46392;BME280;32098;49.448;7.904;2023-03-13T03:32:33;97209.66;;;8.02;99.94
46392;BME280;32098;49.448;7.904;2023-03-13T03:35:00;97225.13;;;8.05;99.57
46392;BME280;32098;49.448;7.904;2023-03-13T03:37:27;97212.06;;;8.03;99.41
46392;BME280;32098;49.448;7.904;2023-03-13T03:39:53;97211.25;;;8.03;99.71
46392;BME280;32098;49.448;7.904;2023-03-13T03:42:20;97208.78;;;7.84;100.00
46392;BME280;32098;49.448;7.904;2023-03-13T03:44:46;97187.09;;;8.04;99.73
46392;BME280;32098;49.448;7.904;2023-03-13T03:47:13;97196.91;;;8.04;99.09
46392;BME280;32098;49.448;7.904;2023-03-13T03:49:43;97207.09;;;8.07;99.40
46392;BME280;32098;49.448;7.904;2023-03-13T03:52:11;97208.47;;;8.09;99.30
46392;BME280;32098;49.448;7.904;2023-03-13T03:54:40;97195.53;;;8.01;99.30
46392;BME280;32098;49.448;7.904;2023-03-13T03:57:07;97212.25;;;8.13;98.52
46392;BME280;32098;49.448;7.904;2023-03-13T03:59:35;97196.63;;;8.17;98.94
46392;BME280;32098;49.448;7.904;2023-03-13T04:02:05;97185.16;;;8.00;99.04
46392;BME280;32098;49.448;7.904;2023-03-13T04:04:32;97197.66;;;8.16;99.40
46392;BME280;32098;49.448;7.904;2023-03-13T04:07:03;97186.13;;;8.10;99.67
46392;BME280;32098;49.448;7.904;2023-03-13T04:09:31;97197.56;;;8.11;100.00
46392;BME280;32098;49.448;7.904;2023-03-13T04:11:59;97169.97;;;7.83;100.00
46392;BME280;32098;49.448;7.904;2023-03-13T04:14:28;97183.69;;;7.92;100.00
46392;BME280;32098;49.448;7.904;2023-03-13T04:16:55;97183.06;;;8.02;100.00
46392;BME280;32098;49.448;7.904;2023-03-13T04:19:24;97181.63;;;8.11;99.97
46392;BME280;32098;49.448;7.904;2023-03-13T04:21:50;97185.00;;;8.06;100.00
46392;BME280;32098;49.448;7.904;2023-03-13T04:24:18;97171.16;;;8.04;100.00
46392;BME280;32098;49.448;7.904;2023-03-13T04:26:44;97163.66;;;8.18;99.58
46392;BME280;32098;49.448;7.904;2023-03-13T04:29:12;97177.28;;;8.21;99.58
46392;BME280;32098;49.448;7.904;2023-03-13T04:31:48;97167.13;;;8.18;99.90
46392;BME280;32098;49.448;7.904;2023-03-13T04:34:29;97150.44;;;8.23;99.87
46392;BME280;32098;49.448;7.904;2023-03-13T04:37:10;97190.81;;;8.20;99.73
46392;BME280;32098;49.448;7.904;2023-03-13T04:39:40;97172.78;;;8.22;99.99
46392;BME280;32098;49.448;7.904;2023-03-13T04:42:10;97181.00;;;8.20;99.94
46392;BME280;32098;49.448;7.904;2023-03-13T04:45:00;97179.31;;;8.31;99.40
46392;BME280;32098;49.448;7.904;2023-03-13T04:47:41;97177.47;;;8.31;99.32
46392;BME280;32098;49.448;7.904;2023-03-13T04:50:30;97191.81;;;8.30;98.56
46392;BME280;32098;49.448;7.904;2023-03-13T04:53:10;97193.19;;;8.33;98.93
46392;BME280;32098;49.448;7.904;2023-03-13T04:55:54;97184.06;;;8.29;98.95
46392;BME280;32098;49.448;7.904;2023-03-13T04:58:39;97186.16;;;8.27;99.45
46392;BME280;32098;49.448;7.904;2023-03-13T05:01:15;97174.09;;;8.36;98.67
46392;BME280;32098;49.448;7.904;2023-03-13T05:03:54;97174.25;;;8.29;99.62
46392;BME280;32098;49.448;7.904;2023-03-13T05:06:38;97167.69;;;8.20;100.00
46392;BME280;32098;49.448;7.904;2023-03-13T05:09:17;97174.84;;;8.20;100.00
46392;BME280;32098;49.448;7.904;2023-03-13T05:12:04;97173.09;;;8.25;100.00
46392;BME280;32098;49.448;7.904;2023-03-13T05:14:59;97175.19;;;8.40;99.37
46392;BME280;32098;49.448;7.904;2023-03-13T05:17:45;97157.13;;;8.25;100.00
46392;BME280;32098;49.448;7.904;2023-03-13T05:20:22;97173.75;;;8.32;100.00
46392;BME280;32098;49.448;7.904;2023-03-13T05:23:21;97151.59;;;8.27;100.00
46392;BME280;32098;49.448;7.904;2023-03-13T05:26:00;97152.16;;;8.29;100.00
46392;BME280;32098;49.448;7.904;2023-03-13T05:28:29;97145.84;;;8.35;99.96
46392;BME280;32098;49.448;7.904;2023-03-13T05:31:19;97163.84;;;8.28;100.00
46392;BME280;32098;49.448;7.904;2023-03-13T05:34:04;97154.56;;;8.30;100.00
46392;BME280;32098;49.448;7.904;2023-03-13T05:36:51;97155.03;;;8.27;100.00
46392;BME280;32098;49.448;7.904;2023-03-13T05:39:37;97147.88;;;8.28;100.00
46392;BME280;32098;49.448;7.904;2023-03-13T05:42:17;97144.25;;;8.34;99.47
46392;BME280;32098;49.448;7.904;2023-03-13T05:45:14;97152.25;;;8.34;99.78
46392;BME280;32098;49.448;7.904;2023-03-13T05:48:01;97154.09;;;8.33;100.00
46392;BME280;32098;49.448;7.904;2023-03-13T05:50:54;97160.06;;;8.40;99.68
46392;BME280;32098;49.448;7.904;2023-03-13T05:53:40;97160.88;;;8.41;99.73
46392;BME280;32098;49.448;7.904;2023-03-13T05:56:25;97138.28;;;8.43;99.61
46392;BME280;32098;49.448;7.904;2023-03-13T05:59:08;97135.22;;;8.35;100.00
46392;BME280;32098;49.448;7.904;2023-03-13T06:01:54;97142.16;;;8.36;100.00
46392;BME280;32098;49.448;7.904;2023-03-13T06:04:33;97133.28;;;8.30;100.00
46392;BME280;32098;49.448;7.904;2023-03-13T06:07:01;97131.19;;;8.49;100.00
46392;BME280;32098;49.448;7.904;2023-03-13T06:09:27;97145.63;;;8.53;99.49
46392;BME280;32098;49.448;7.904;2023-03-13T06:11:55;97162.25;;;8.43;100.00
46392;BME280;32098;49.448;7.904;2023-03-13T06:14:22;97170.13;;;8.55;99.69
46392;BME280;32098;49.448;7.904;2023-03-13T06:17:11;97170.78;;;8.62;99.50
46392;BME280;32098;49.448;7.904;2023-03-13T06:19:37;97154.56;;;8.64;99.78
46392;BME280;32098;49.448;7.904;2023-03-13T06:22:04;97155.50;;;8.69;99.22
46392;BME280;32098;49.448;7.904;2023-03-13T06:24:30;97143.84;;;8.58;100.00
46392;BME280;32098;49.448;7.904;2023-03-13T06:26:57;97142.09;;;8.64;100.00
46392;BME280;32098;49.448;7.904;2023-03-13T06:29:24;97151.09;;;8.63;100.00
46392;BME280;32098;49.448;7.904;2023-03-13T06:31:51;97157.34;;;8.69;100.00
46392;BME280;32098;49.448;7.904;2023-03-13T06:34:17;97164.13;;;8.76;99.75
46392;BME280;32098;49.448;7.904;2023-03-13T06:36:44;97163.94;;;8.83;99.37
46392;BME280;32098;49.448;7.904;2023-03-13T06:39:11;97155.56;;;8.74;99.79
46392;BME280;32098;49.448;7.904;2023-03-13T06:41:37;97153.47;;;8.76;100.00
46392;BME280;32098;49.448;7.904;2023-03-13T06:44:04;97147.66;;;8.79;100.00
46392;BME280;32098;49.448;7.904;2023-03-13T06:46:30;97129.59;;;8.65;100.00
46392;BME280;32098;49.448;7.904;2023-03-13T06:48:57;97141.72;;;8.72;100.00
46392;BME280;32098;49.448;7.904;2023-03-13T06:51:24;97143.94;;;8.80;99.55
46392;BME280;32098;49.448;7.904;2023-03-13T06:53:51;97138.28;;;8.93;98.35
46392;BME280;32098;49.448;7.904;2023-03-13T06:56:18;97151.03;;;8.91;98.24
46392;BME280;32098;49.448;7.904;2023-03-13T06:58:48;97155.38;;;8.97;97.92
46392;BME280;32098;49.448;7.904;2023-03-13T07:01:15;97137.38;;;8.88;97.25
46392;BME280;32098;49.448;7.904;2023-03-13T07:03:43;97165.09;;;9.08;96.78
46392;BME280;32098;49.448;7.904;2023-03-13T07:06:10;97151.31;;;9.11;96.13
46392;BME280;32098;49.448;7.904;2023-03-13T07:08:38;97175.34;;;9.16;95.74
46392;BME280;32098;49.448;7.904;2023-03-13T07:11:07;97165.66;;;9.10;96.23
46392;BME280;32098;49.448;7.904;2023-03-13T07:13:35;97167.84;;;9.13;95.54
46392;BME280;32098;49.448;7.904;2023-03-13T07:16:03;97158.22;;;9.12;95.38
46392;BME280;32098;49.448;7.904;2023-03-13T07:18:30;97149.63;;;9.05;95.11
46392;BME280;32098;49.448;7.904;2023-03-13T07:21:00;97167.97;;;9.23;94.30
46392;BME280;32098;49.448;7.904;2023-03-13T07:23:28;97168.03;;;9.29;93.74
46392;BME280;32098;49.448;7.904;2023-03-13T07:25:56;97160.13;;;9.34;93.31
46392;BME280;32098;49.448;7.904;2023-03-13T07:28:23;97157.06;;;9.25;93.13
46392;BME280;32098;49.448;7.904;2023-03-13T07:30:51;97172.50;;;9.23;93.57
46392;BME280;32098;49.448;7.904;2023-03-13T07:33:18;97158.44;;;9.28;93.25
46392;BME280;32098;49.448;7.904;2023-03-13T07:35:49;97158.50;;;9.33;92.54
46392;BME280;32098;49.448;7.904;2023-03-13T07:38:17;97158.81;;;9.36;92.30
46392;BME280;32098;49.448;7.904;2023-03-13T07:40:48;97174.47;;;9.33;92.58
46392;BME280;32098;49.448;7.904;2023-03-13T07:43:15;97174.47;;;9.33;92.77
46392;BME280;32098;49.448;7.904;2023-03-13T07:48:22;97162.72;;;9.29;93.85
46392;BME280;32098;49.448;7.904;2023-03-13T07:50:49;97158.44;;;9.28;93.64
46392;BME280;32098;49.448;7.904;2023-03-13T07:53:16;97163.34;;;9.36;93.74
46392;BME280;32098;49.448;7.904;2023-03-13T07:55:54;97153.22;;;9.16;95.38
46392;BME280;32098;49.448;7.904;2023-03-13T07:58:21;97167.59;;;9.15;95.39
46392;BME280;32098;49.448;7.904;2023-03-13T08:00:48;97171.13;;;9.20;95.61
46392;BME280;32098;49.448;7.904;2023-03-13T08:03:14;97165.88;;;9.26;95.20
46392;BME280;32098;49.448;7.904;2023-03-13T08:05:41;97169.91;;;9.28;95.29
46392;BME280;32098;49.448;7.904;2023-03-13T08:08:08;97167.00;;;9.30;95.33
46392;BME280;32098;49.448;7.904;2023-03-13T08:10:34;97163.34;;;9.36;95.35
46392;BME280;32098;49.448;7.904;2023-03-13T08:13:01;97145.75;;;9.35;94.71
46392;BME280;32098;49.448;7.904;2023-03-13T08:15:28;97152.38;;;9.32;95.20
46392;BME280;32098;49.448;7.904;2023-03-13T08:17:55;97155.91;;;9.38;95.00
46392;BME280;32098;49.448;7.904;2023-03-13T08:20:22;97167.00;;;9.30;95.63
46392;BME280;32098;49.448;7.904;2023-03-13T08:22:48;97159.63;;;9.37;95.25
46392;BME280;32098;49.448;7.904;2023-03-13T08:25:17;97149.03;;;9.42;95.25
46392;BME280;32098;49.448;7.904;2023-03-13T08:27:44;97157.47;;;9.34;95.84
46392;BME280;32098;49.448;7.904;2023-03-13T08:30:11;97158.00;;;9.36;95.75
46392;BME280;32098;49.448;7.904;2023-03-13T08:32:37;97158.19;;;9.29;96.58
46392;BME280;32098;49.448;7.904;2023-03-13T08:35:04;97160.19;;;9.39;96.27
46392;BME280;32098;49.448;7.904;2023-03-13T08:37:30;97130.06;;;9.38;96.32
46392;BME280;32098;49.448;7.904;2023-03-13T08:39:57;97129.25;;;9.38;96.00
46392;BME280;32098;49.448;7.904;2023-03-13T08:42:23;97125.16;;;9.52;95.49
46392;BME280;32098;49.448;7.904;2023-03-13T08:44:50;97133.88;;;9.69;94.62
46392;BME280;32098;49.448;7.904;2023-03-13T08:47:16;97140.31;;;9.73;93.91
46392;BME280;32098;49.448;7.904;2023-03-13T08:49:43;97139.94;;;9.86;93.36
46392;BME280;32098;49.448;7.904;2023-03-13T08:52:10;97142.38;;;9.93;92.27
46392;BME280;32098;49.448;7.904;2023-03-13T08:54:36;97145.31;;;9.91;92.13
46392;BME280;32098;49.448;7.904;2023-03-13T08:57:03;97137.69;;;10.00;91.23
46392;BME280;32098;49.448;7.904;2023-03-13T08:59:30;97139.41;;;10.11;90.18
46392;BME280;32098;49.448;7.904;2023-03-13T09:01:56;97144.91;;;10.04;89.67
46392;BME280;32098;49.448;7.904;2023-03-13T09:04:23;97153.50;;;10.06;89.40
46392;BME280;32098;49.448;7.904;2023-03-13T09:06:49;97145.56;;;10.11;89.56
46392;BME280;32098;49.448;7.904;2023-03-13T09:09:16;97143.97;;;10.15;88.41
46392;BME280;32098;49.448;7.904;2023-03-13T09:11:42;97141.84;;;10.12;88.04
46392;BME280;32098;49.448;7.904;2023-03-13T09:14:09;97125.44;;;10.04;87.89
46392;BME280;32098;49.448;7.904;2023-03-13T09:16:36;97138.81;;;10.35;87.52
46392;BME280;32098;49.448;7.904;2023-03-13T09:19:03;97123.97;;;10.44;86.33
46392;BME280;32098;49.448;7.904;2023-03-13T09:21:32;97138.75;;;10.57;85.42
46392;BME280;32098;49.448;7.904;2023-03-13T09:23:59;97131.84;;;10.66;84.45
46392;BME280;32098;49.448;7.904;2023-03-13T09:26:26;97139.97;;;10.81;84.00
46392;BME280;32098;49.448;7.904;2023-03-13T09:28:54;97135.47;;;10.87;83.71
46392;BME280;32098;49.448;7.904;2023-03-13T09:31:23;97126.34;;;10.83;83.65
46392;BME280;32098;49.448;7.904;2023-03-13T09:33:50;97134.66;;;10.86;83.59
46392;BME280;32098;49.448;7.904;2023-03-13T09:36:18;97131.16;;;10.81;83.84
46392;BME280;32098;49.448;7.904;2023-03-13T09:38:52;97131.69;;;10.83;83.21
46392;BME280;32098;49.448;7.904;2023-03-13T09:44:08;97107.19;;;10.91;82.77
46392;BME280;32098;49.448;7.904;2023-03-13T09:46:40;97103.25;;;11.03;82.48
46392;BME280;32098;49.448;7.904;2023-03-13T09:49:14;97100.50;;;10.93;82.49
46392;BME280;32098;49.448;7.904;2023-03-13T09:51:47;97098.13;;;10.92;81.85
46392;BME280;32098;49.448;7.904;2023-03-13T09:56:56;97085.66;;;10.66;81.40
46392;BME280;32098;49.448;7.904;2023-03-13T10:02:19;97080.34;;;10.71;80.94
46392;BME280;32098;49.448;7.904;2023-03-13T10:04:52;97080.34;;;10.71;81.50
46392;BME280;32098;49.448;7.904;2023-03-13T10:07:21;97075.59;;;10.83;80.57
46392;BME280;32098;49.448;7.904;2023-03-13T10:09:47;97065.25;;;10.91;80.30
46392;BME280;32098;49.448;7.904;2023-03-13T10:12:17;97065.19;;;10.81;80.46
46392;BME280;32098;49.448;7.904;2023-03-13T10:14:56;97057.78;;;10.93;79.69
46392;BME280;32098;49.448;7.904;2023-03-13T10:17:37;97061.34;;;11.14;79.14
46392;BME280;32098;49.448;7.904;2023-03-13T10:20:17;97061.31;;;11.04;78.86
46392;BME280;32098;49.448;7.904;2023-03-13T10:25:40;97045.84;;;11.16;78.10
46392;BME280;32098;49.448;7.904;2023-03-13T10:28:11;97034.13;;;11.22;78.06
46392;BME280;32098;49.448;7.904;2023-03-13T10:30:46;97023.19;;;11.29;77.94
46392;BME280;32098;49.448;7.904;2023-03-13T10:33:20;97039.56;;;11.42;77.42
46392;BME280;32098;49.448;7.904;2023-03-13T10:36:08;97029.44;;;11.59;76.57
46392;BME280;32098;49.448;7.904;2023-03-13T10:38:55;97023.03;;;11.91;75.70
46392;BME280;32098;49.448;7.904;2023-03-13T10:41:28;97018.25;;;12.23;74.25
46392;BME280;32098;49.448;7.904;2023-03-13T10:44:03;97000.84;;;12.15;74.03
46392;BME280;32098;49.448;7.904;2023-03-13T10:46:34;97012.09;;;12.27;73.28
46392;BME280;32098;49.448;7.904;2023-03-13T10:49:16;97002.59;;;12.90;72.83
46392;BME280;32098;49.448;7.904;2023-03-13T10:51:55;96986.31;;;13.31;69.75
46392;BME280;32098;49.448;7.904;2023-03-13T10:54:28;96993.69;;;13.49;68.63
46392;BME280;32098;49.448;7.904;2023-03-13T10:59:47;96995.50;;;14.02;67.14
46392;BME280;32098;49.448;7.904;2023-03-13T11:02:34;96987.91;;;14.09;65.99
46392;BME280;32098;49.448;7.904;2023-03-13T11:07:52;96965.34;;;14.39;65.20
46392;BME280;32098;49.448;7.904;2023-03-13T11:12:48;96957.84;;;14.65;64.33
46392;BME280;32098;49.448;7.904;2023-03-13T11:15:46;96956.13;;;14.74;63.91
46392;BME280;32098;49.448;7.904;2023-03-13T11:18:52;96958.19;;;14.58;64.39
46392;BME280;32098;49.448;7.904;2023-03-13T11:21:23;96938.06;;;14.56;64.55
46392;BME280;32098;49.448;7.904;2023-03-13T11:23:57;96964.06;;;14.60;64.76
46392;BME280;32098;49.448;7.904;2023-03-13T11:26:37;96941.47;;;14.61;64.65
46392;BME280;32098;49.448;7.904;2023-03-13T11:29:30;96936.09;;;14.85;64.41
46392;BME280;32098;49.448;7.904;2023-03-13T11:32:04;96929.91;;;14.84;64.03
46392;BME280;32098;49.448;7.904;2023-03-13T11:34:43;96914.47;;;14.95;63.05
46392;BME280;32098;49.448;7.904;2023-03-13T11:37:14;96909.66;;;14.92;64.14
46392;BME280;32098;49.448;7.904;2023-03-13T11:39:54;96914.91;;;14.83;63.98
46392;BME280;32098;49.448;7.904;2023-03-13T11:42:52;96904.75;;;14.52;64.50
46392;BME280;32098;49.448;7.904;2023-03-13T11:48:59;96887.28;;;14.30;65.51
46392;BME280;32098;49.448;7.904;2023-03-13T11:52:09;96873.69;;;14.46;65.71
46392;BME280;32098;49.448;7.904;2023-03-13T11:58:16;96862.44;;;14.86;65.04
46392;BME280;32098;49.448;7.904;2023-03-13T12:00:59;96847.91;;;14.87;64.24
46392;BME280;32098;49.448;7.904;2023-03-13T12:03:41;96835.41;;;14.77;64.26
46392;BME280;32098;49.448;7.904;2023-03-13T12:06:20;96835.56;;;14.86;64.27
46392;BME280;32098;49.448;7.904;2023-03-13T12:08:59;96832.78;;;15.10;63.95
46392;BME280;32098;49.448;7.904;2023-03-13T12:11:34;96826.44;;;15.19;63.67
46392;BME280;32098;49.448;7.904;2023-03-13T12:14:08;96816.66;;;15.28;63.07
46392;BME280;32098;49.448;7.904;2023-03-13T12:16:41;96821.56;;;15.21;62.38
46392;BME280;32098;49.448;7.904;2023-03-13T12:19:16;96815.88;;;15.41;62.35
46392;BME280;32098;49.448;7.904;2023-03-13T12:21:52;96813.41;;;15.45;62.39
46392;BME280;32098;49.448;7.904;2023-03-13T12:24:25;96799.22;;;15.58;61.64
46392;BME280;32098;49.448;7.904;2023-03-13T12:26:58;96802.50;;;15.36;61.51
46392;BME280;32098;49.448;7.904;2023-03-13T12:29:47;96790.44;;;15.52;61.33
46392;BME280;32098;49.448;7.904;2023-03-13T12:32:24;96794.00;;;15.29;61.46
46392;BME280;32098;49.448;7.904;2023-03-13T12:37:42;96780.03;;;15.46;61.41
46392;BME280;32098;49.448;7.904;2023-03-13T12:40:34;96797.25;;;15.64;61.36
46392;BME280;32098;49.448;7.904;2023-03-13T12:43:09;96783.88;;;15.72;61.01
46392;BME280;32098;49.448;7.904;2023-03-13T12:45:49;96761.34;;;15.54;60.05
46392;BME280;32098;49.448;7.904;2023-03-13T12:48:49;96769.31;;;15.60;60.47
46392;BME280;32098;49.448;7.904;2023-03-13T13:00:24;96737.25;;;15.44;60.76
46392;BME280;32098;49.448;7.904;2023-03-13T13:08:33;96714.88;;;15.49;59.59
46392;BME280;32098;49.448;7.904;2023-03-13T13:16:44;96694.19;;;15.63;59.21
46392;BME280;32098;49.448;7.904;2023-03-13T13:24:59;96671.66;;;15.86;58.32
46392;BME280;32098;49.448;7.904;2023-03-13T13:37:48;96651.09;;;15.90;57.76
46392;BME280;32098;49.448;7.904;2023-03-13T13:42:52;96619.59;;;15.91;57.46
46392;BME280;32098;49.448;7.904;2023-03-13T13:45:37;96615.41;;;15.85;57.75
46392;BME280;32098;49.448;7.904;2023-03-13T13:48:26;96605.09;;;16.00;57.01
46392;BME280;32098;49.448;7.904;2023-03-13T13:56:55;96581.00;;;16.17;56.72
46392;BME280;32098;49.448;7.904;2023-03-13T13:59:32;96580.56;;;16.24;56.72
46392;BME280;32098;49.448;7.904;2023-03-13T14:07:17;96582.53;;;16.32;56.47
46392;BME280;32098;49.448;7.904;2023-03-13T14:10:01;96563.81;;;16.27;56.66
46392;BME280;32098;49.448;7.904;2023-03-13T14:12:35;96549.59;;;16.13;56.84
46392;BME280;32098;49.448;7.904;2023-03-13T14:17:38;96537.78;;;16.00;56.86
46392;BME280;32098;49.448;7.904;2023-03-13T14:20:19;96519.06;;;15.95;57.02
46392;BME280;32098;49.448;7.904;2023-03-13T14:22:49;96511.94;;;15.99;57.01
46392;BME280;32098;49.448;7.904;2023-03-13T14:25:15;96495.13;;;16.16;56.81
46392;BME280;32098;49.448;7.904;2023-03-13T14:27:43;96495.44;;;16.14;56.61
46392;BME280;32098;49.448;7.904;2023-03-13T14:30:10;96482.28;;;16.13;56.46
46392;BME280;32098;49.448;7.904;2023-03-13T14:32:39;96452.72;;;15.99;56.20
46392;BME280;32098;49.448;7.904;2023-03-13T14:35:08;96463.06;;;16.06;56.85
46392;BME280;32098;49.448;7.904;2023-03-13T14:37:46;96454.91;;;16.19;56.54
46392;BME280;32098;49.448;7.904;2023-03-13T14:40:24;96433.81;;;16.13;55.62
46392;BME280;32098;49.448;7.904;2023-03-13T14:42:54;96439.72;;;16.24;56.16
46392;BME280;32098;49.448;7.904;2023-03-13T14:45:23;96432.41;;;16.15;55.84
46392;BME280;32098;49.448;7.904;2023-03-13T14:47:51;96436.53;;;16.21;55.91
46392;BME280;32098;49.448;7.904;2023-03-13T14:50:22;96429.00;;;16.32;55.46
46392;BME280;32098;49.448;7.904;2023-03-13T14:52:58;96436.72;;;16.25;55.48
46392;BME280;32098;49.448;7.904;2023-03-13T14:55:29;96435.88;;;16.38;55.47
46392;BME280;32098;49.448;7.904;2023-03-13T14:57:59;96444.06;;;16.33;55.02
46392;BME280;32098;49.448;7.904;2023-03-13T15:00:35;96436.47;;;16.35;55.42
46392;BME280;32098;49.448;7.904;2023-03-13T15:03:32;96430.81;;;16.45;55.03
46392;BME280;32098;49.448;7.904;2023-03-13T15:06:06;96443.34;;;16.41;55.15
46392;BME280;32098;49.448;7.904;2023-03-13T15:08:38;96421.78;;;16.19;54.64